createdAt,value
2018-09-14T00:00:06.430Z,28.30
2018-09-14T00:02:34.889Z,34.40
2018-09-14T00:05:04.760Z,28.73
2018-09-14T00:07:33.193Z,29.17
2018-09-14T00:10:01.844Z,27.20
2018-09-14T00:12:30.378Z,30.03
2018-09-14T00:14:58.812Z,30.33
2018-09-14T00:17:27.333Z,30.70
2018-09-14T00:20:58.743Z,31.70
2018-09-14T00:23:27.177Z,30.40
2018-09-14T00:25:55.658Z,33.80
2018-09-14T00:28:24.356Z,36.87
2018-09-14T00:30:52.801Z,34.53
2018-09-14T00:33:21.309Z,32.87
2018-09-14T00:35:49.767Z,32.57
2018-09-14T00:38:19.196Z,35.07
2018-09-14T00:40:47.660Z,32.77
2018-09-14T00:43:16.264Z,33.90
2018-09-14T00:45:44.717Z,33.20
2018-09-14T00:48:13.256Z,33.10
2018-09-14T00:50:41.692Z,38.77
2018-09-14T00:53:10.165Z,36.80
2018-09-14T00:55:38.687Z,34.37
2018-09-14T00:58:07.153Z,37.20
2018-09-14T01:00:35.621Z,33.60
2018-09-14T01:03:04.098Z,30.63
2018-09-14T01:06:36.056Z,35.10
2018-09-14T01:09:07.772Z,32.50
2018-09-14T01:11:36.306Z,34.90
2018-09-14T01:14:04.798Z,33.37
2018-09-14T01:16:33.311Z,33.43
2018-09-14T01:19:01.761Z,35.10
2018-09-14T01:21:30.269Z,33.30
2018-09-14T01:23:58.717Z,33.53
2018-09-14T01:26:27.233Z,33.77
2018-09-14T01:28:55.676Z,32.77
2018-09-14T01:31:25.232Z,40.33
2018-09-14T01:33:53.664Z,33.30
2018-09-14T01:36:22.181Z,31.60
2018-09-14T01:38:50.644Z,36.13
2018-09-14T01:41:19.120Z,31.90
2018-09-14T01:43:47.593Z,33.80
2018-09-14T01:46:16.088Z,35.60
2018-09-14T01:48:44.566Z,32.33
2018-09-14T01:51:13.321Z,29.23
2018-09-14T01:53:41.869Z,33.93
2018-09-14T01:56:10.328Z,31.90
2018-09-14T01:58:38.784Z,36.00
2018-09-14T02:01:07.612Z,35.20
2018-09-14T02:03:36.084Z,33.47
2018-09-14T02:06:04.532Z,32.20
2018-09-14T02:08:33.025Z,32.10
2018-09-14T02:11:01.500Z,32.00
2018-09-14T02:13:30.000Z,34.87
2018-09-14T02:15:58.476Z,34.20
2018-09-14T02:18:26.959Z,33.63
2018-09-14T02:21:58.608Z,45.40
2018-09-14T02:24:27.137Z,47.47
2018-09-14T02:26:55.572Z,38.30
2018-09-14T02:29:24.993Z,42.47
2018-09-14T02:31:53.444Z,38.63
2018-09-14T02:34:21.949Z,37.80
2018-09-14T02:36:50.465Z,39.67
2018-09-14T02:39:18.921Z,38.07
2018-09-14T02:41:47.570Z,39.43
2018-09-14T02:44:16.082Z,43.87
2018-09-14T02:46:44.569Z,40.33
2018-09-14T02:49:13.128Z,39.97
2018-09-14T02:51:41.644Z,43.33
2018-09-14T02:54:10.562Z,47.80
2018-09-14T02:56:39.037Z,43.57
2018-09-14T02:59:07.473Z,42.00
2018-09-14T03:01:35.974Z,41.93
2018-09-14T03:04:04.480Z,38.93
2018-09-14T03:06:32.937Z,39.03
2018-09-14T03:09:01.462Z,40.40
2018-09-14T03:11:30.121Z,38.00
2018-09-14T03:13:59.403Z,41.13
2018-09-14T03:16:28.874Z,40.70
2018-09-14T03:18:57.459Z,38.77
2018-09-14T03:21:25.969Z,36.57
2018-09-14T03:23:54.446Z,41.83
2018-09-14T03:26:22.961Z,37.40
2018-09-14T03:28:51.438Z,37.83
2018-09-14T03:31:19.961Z,37.30
2018-09-14T03:33:48.476Z,35.27
2018-09-14T03:36:16.953Z,38.50
2018-09-14T03:38:45.448Z,37.53
2018-09-14T03:41:13.993Z,33.73
2018-09-14T03:43:42.513Z,41.03
2018-09-14T03:46:10.976Z,42.37
2018-09-14T03:48:39.481Z,44.13
2018-09-14T03:51:08.064Z,47.33
2018-09-14T03:53:36.672Z,43.60
2018-09-14T03:56:05.126Z,46.33
2018-09-14T03:58:33.618Z,48.43
2018-09-14T04:01:02.245Z,44.33
2018-09-14T04:03:30.697Z,45.50
2018-09-14T04:05:59.154Z,51.07
2018-09-14T04:08:27.608Z,51.77
2018-09-14T04:10:56.144Z,48.77
2018-09-14T04:13:24.642Z,47.40
2018-09-14T04:15:53.112Z,41.77
2018-09-14T04:18:21.567Z,45.30
2018-09-14T04:20:50.073Z,43.33
2018-09-14T04:23:18.570Z,46.90
2018-09-14T04:25:47.011Z,42.80
2018-09-14T04:28:15.560Z,41.80
2018-09-14T04:30:44.085Z,39.10
2018-09-14T04:33:12.680Z,39.57
2018-09-14T04:35:41.131Z,44.10
2018-09-14T04:38:09.695Z,43.33
2018-09-14T04:40:38.092Z,42.83
2018-09-14T04:43:06.592Z,47.10
2018-09-14T04:45:35.066Z,45.57
2018-09-14T04:48:03.961Z,48.13
2018-09-14T04:50:32.427Z,39.27
2018-09-14T04:53:00.938Z,36.80
2018-09-14T04:55:29.409Z,47.60
2018-09-14T04:57:57.962Z,41.67
2018-09-14T05:00:26.477Z,42.03
2018-09-14T05:02:55.045Z,49.20
2018-09-14T05:05:23.540Z,46.77
2018-09-14T05:07:52.013Z,48.30
2018-09-14T05:10:20.521Z,46.63
2018-09-14T05:12:48.968Z,50.30
2018-09-14T05:15:18.394Z,61.00
2018-09-14T05:17:46.873Z,58.20
2018-09-14T05:20:15.351Z,60.10
2018-09-14T05:22:43.805Z,58.43
2018-09-14T05:25:12.359Z,58.30
2018-09-14T05:27:40.788Z,58.43
2018-09-14T05:30:09.278Z,64.53
2018-09-14T05:32:37.740Z,66.00
2018-09-14T05:35:06.272Z,61.97
2018-09-14T05:37:34.712Z,50.33
2018-09-14T05:40:03.240Z,45.07
2018-09-14T05:42:31.685Z,50.43
2018-09-14T05:45:00.260Z,42.13
2018-09-14T05:47:28.743Z,51.67
2018-09-14T05:49:57.305Z,45.30
2018-09-14T05:52:25.823Z,39.57
2018-09-14T05:54:54.299Z,41.00
2018-09-14T05:57:22.761Z,45.93
2018-09-14T05:59:51.236Z,39.97
2018-09-14T06:02:19.768Z,34.40
2018-09-14T06:04:48.213Z,41.00
2018-09-14T06:07:16.719Z,37.33
2018-09-14T06:09:45.217Z,33.63
2018-09-14T06:12:13.654Z,38.77
2018-09-14T06:14:43.230Z,34.30
2018-09-14T06:17:11.685Z,38.27
2018-09-14T06:19:40.144Z,36.63
2018-09-14T06:22:08.656Z,38.43
2018-09-14T06:24:37.115Z,39.13
2018-09-14T06:27:05.774Z,42.37
2018-09-14T06:29:34.298Z,34.03
2018-09-14T06:32:02.749Z,42.23
2018-09-14T06:34:31.254Z,29.73
2018-09-14T06:36:59.736Z,39.50
2018-09-14T06:39:28.402Z,47.60
2018-09-14T06:41:56.876Z,41.73
2018-09-14T06:44:25.340Z,34.23
2018-09-14T06:46:53.853Z,35.97
2018-09-14T06:49:22.367Z,36.50
2018-09-14T06:51:50.813Z,38.80
2018-09-14T06:54:19.337Z,34.80
2018-09-14T06:56:47.791Z,34.87
2018-09-14T06:59:16.257Z,36.43
2018-09-14T07:01:44.737Z,31.70
2018-09-14T07:04:13.205Z,38.90
2018-09-14T07:07:45.376Z,39.17
2018-09-14T07:10:13.852Z,36.30
2018-09-14T07:12:42.403Z,37.33
2018-09-14T07:15:10.907Z,36.27
2018-09-14T07:17:39.512Z,37.20
2018-09-14T07:20:08.053Z,36.00
2018-09-14T07:22:36.596Z,44.60
2018-09-14T07:25:05.152Z,32.00
2018-09-14T07:27:33.719Z,37.00
2018-09-14T07:30:02.276Z,30.80
2018-09-14T07:32:30.708Z,30.67
2018-09-14T07:34:59.220Z,31.97
2018-09-14T07:37:27.673Z,34.27
2018-09-14T07:39:56.176Z,30.43
2018-09-14T07:42:24.678Z,35.73
2018-09-14T07:44:53.146Z,42.07
2018-09-14T07:47:21.602Z,31.87
2018-09-14T07:49:50.111Z,38.33
2018-09-14T07:52:18.562Z,34.70
2018-09-14T07:54:48.100Z,31.47
2018-09-14T07:57:16.883Z,28.67
2018-09-14T07:59:45.417Z,30.30
2018-09-14T08:02:13.941Z,31.30
2018-09-14T08:04:42.410Z,27.27
2018-09-14T08:07:11.009Z,31.37
2018-09-14T08:09:39.465Z,35.37
2018-09-14T08:12:08.060Z,30.53
2018-09-14T08:14:36.520Z,32.37
2018-09-14T08:17:05.077Z,30.37
2018-09-14T08:19:33.528Z,26.10
2018-09-14T08:22:02.053Z,30.43
2018-09-14T08:24:30.453Z,35.60
2018-09-14T08:26:59.012Z,27.50
2018-09-14T08:29:27.488Z,34.00
2018-09-14T08:31:55.917Z,30.07
2018-09-14T08:34:24.411Z,35.53
2018-09-14T08:36:52.881Z,30.73
2018-09-14T08:39:21.380Z,34.53
2018-09-14T08:42:53.244Z,36.17
2018-09-14T08:45:21.758Z,37.40
2018-09-14T08:47:50.403Z,35.27
2018-09-14T08:50:18.908Z,35.57
2018-09-14T08:52:47.407Z,40.00
2018-09-14T08:55:15.877Z,37.73
2018-09-14T08:57:44.336Z,38.67
2018-09-14T09:00:12.923Z,41.67
2018-09-14T09:02:41.378Z,38.00
2018-09-14T09:05:10.795Z,42.10
2018-09-14T09:07:40.336Z,42.50
2018-09-14T09:10:08.810Z,38.10
2018-09-14T09:12:37.300Z,40.30
2018-09-14T09:15:05.980Z,39.30
2018-09-14T09:17:34.520Z,34.33
2018-09-14T09:20:03.085Z,39.60
2018-09-14T09:22:31.621Z,59.63
2018-09-14T09:25:00.291Z,37.37
2018-09-14T09:27:28.804Z,52.40
2018-09-14T09:29:57.384Z,42.73
2018-09-14T09:32:25.849Z,45.13
2018-09-14T09:34:54.318Z,47.37
2018-09-14T09:37:22.872Z,44.33
2018-09-14T09:39:51.389Z,40.73
2018-09-14T09:42:19.862Z,44.00
2018-09-14T09:44:48.352Z,44.97
2018-09-14T09:47:16.841Z,45.33
2018-09-14T09:49:45.322Z,44.27
2018-09-14T09:52:13.834Z,48.43
2018-09-14T09:54:42.286Z,45.13
2018-09-14T09:57:10.780Z,43.63
2018-09-14T09:59:39.253Z,49.70
2018-09-14T10:02:13.234Z,41.20
2018-09-14T10:04:47.022Z,48.50
2018-09-14T10:07:15.531Z,44.37
2018-09-14T10:09:44.065Z,43.20
2018-09-14T10:12:12.544Z,43.83
2018-09-14T10:14:40.979Z,38.60
2018-09-14T10:17:09.540Z,43.00
2018-09-14T10:19:38.452Z,41.77
2018-09-14T10:22:06.972Z,45.57
2018-09-14T10:24:35.469Z,38.87
2018-09-14T10:27:03.936Z,33.83
2018-09-14T10:29:32.431Z,34.43
2018-09-14T10:32:00.872Z,33.67
2018-09-14T10:34:29.377Z,34.23
2018-09-14T10:36:57.850Z,33.20
2018-09-14T10:39:26.383Z,36.77
2018-09-14T10:41:54.905Z,32.13
2018-09-14T10:44:23.398Z,20.97
2018-09-14T10:46:51.868Z,22.93
2018-09-14T10:49:20.351Z,26.60
2018-09-14T10:51:49.008Z,24.47
2018-09-14T10:54:17.508Z,24.73
2018-09-14T10:56:45.988Z,21.13
2018-09-14T10:59:14.517Z,27.27
2018-09-14T11:01:42.955Z,22.97
2018-09-14T11:04:11.420Z,23.53
2018-09-14T11:06:39.931Z,25.70
2018-09-14T11:09:10.706Z,20.47
2018-09-14T11:11:39.160Z,18.93
2018-09-14T11:14:07.649Z,59.60
2018-09-14T11:16:36.317Z,21.60
2018-09-14T11:19:04.840Z,27.57
2018-09-14T11:21:33.696Z,23.13
2018-09-14T11:24:02.564Z,22.97
2018-09-14T11:26:31.162Z,26.60
2018-09-14T11:28:59.629Z,24.23
2018-09-14T11:31:28.851Z,19.20
2018-09-14T11:33:58.144Z,21.80
2018-09-14T11:36:27.230Z,18.83
2018-09-14T11:38:55.724Z,18.83
2018-09-14T11:41:24.193Z,19.70
2018-09-14T11:43:52.776Z,19.27
2018-09-14T11:46:21.368Z,16.63
2018-09-14T11:48:50.797Z,18.70
2018-09-14T11:51:19.254Z,15.20
2018-09-14T11:53:47.744Z,18.13
2018-09-14T11:56:16.210Z,17.10
2018-09-14T11:58:44.716Z,14.03
2018-09-14T12:01:13.227Z,14.00
2018-09-14T12:03:41.665Z,13.07
2018-09-14T12:06:10.897Z,13.67
2018-09-14T12:08:39.454Z,11.87
2018-09-14T12:11:08.467Z,11.37
2018-09-14T12:13:37.799Z,10.30
2018-09-14T12:16:06.386Z,13.27
2018-09-14T12:18:35.263Z,10.40
2018-09-14T12:21:04.120Z,10.97
2018-09-14T12:23:32.857Z,13.90
2018-09-14T12:26:01.773Z,14.00
2018-09-14T12:28:30.766Z,11.17
2018-09-14T12:30:59.485Z,7.73
2018-09-14T12:33:28.290Z,12.23
2018-09-14T12:35:57.135Z,9.87
2018-09-14T12:38:25.678Z,10.00
2018-09-14T12:40:54.098Z,9.70
2018-09-14T12:43:22.608Z,9.07
2018-09-14T12:45:51.061Z,10.97
2018-09-14T12:48:19.932Z,11.40
2018-09-14T12:50:48.725Z,8.03
2018-09-14T12:53:18.264Z,13.43
2018-09-14T12:55:46.717Z,8.70
2018-09-14T12:58:15.261Z,7.30
2018-09-14T13:00:43.676Z,9.53
2018-09-14T13:03:12.504Z,10.03
2018-09-14T13:05:40.977Z,6.83
2018-09-14T13:08:09.472Z,26.00
2018-09-14T13:10:38.006Z,14.60
2018-09-14T13:13:06.525Z,8.20
2018-09-14T13:15:35.066Z,36.97
2018-09-14T13:18:03.659Z,6.57
2018-09-14T13:20:33.293Z,10.10
2018-09-14T13:23:01.783Z,10.30
2018-09-14T13:25:30.434Z,7.27
2018-09-14T13:27:59.852Z,6.70
2018-09-14T13:30:28.488Z,8.77
2018-09-14T13:32:57.030Z,6.37
2018-09-14T13:35:25.553Z,7.83
2018-09-14T13:37:54.543Z,7.40
2018-09-14T13:40:23.236Z,6.83
2018-09-14T13:42:52.105Z,7.17
2018-09-14T13:45:20.726Z,8.50
2018-09-14T13:47:49.276Z,9.30
2018-09-14T13:50:17.806Z,7.50
2018-09-14T13:52:47.278Z,12.07
2018-09-14T13:55:15.837Z,16.17
2018-09-14T13:57:44.348Z,8.20
2018-09-14T14:00:12.880Z,8.40
2018-09-14T14:02:43.027Z,6.60
2018-09-14T14:05:12.805Z,9.90
2018-09-14T14:07:41.405Z,8.30
2018-09-14T14:10:09.973Z,7.13
2018-09-14T14:12:38.398Z,8.00
2018-09-14T14:15:06.970Z,7.60
2018-09-14T14:17:35.848Z,8.10
2018-09-14T14:20:04.347Z,7.77
2018-09-14T14:22:32.945Z,7.37
2018-09-14T14:25:01.432Z,6.47
2018-09-14T14:27:30.123Z,6.70
2018-09-14T14:29:59.143Z,6.70
2018-09-14T14:32:27.994Z,6.07
2018-09-14T14:34:57.258Z,7.37
2018-09-14T14:37:26.646Z,8.20
2018-09-14T14:39:55.444Z,4.80
2018-09-14T14:42:24.523Z,6.63
2018-09-14T14:44:53.365Z,6.13
2018-09-14T14:47:22.053Z,6.70
2018-09-14T14:49:51.725Z,7.23
2018-09-14T14:52:24.569Z,7.47
2018-09-14T14:54:53.868Z,11.20
2018-09-14T14:57:23.174Z,5.20
2018-09-14T14:59:53.035Z,6.23
2018-09-14T15:02:22.748Z,13.57
2018-09-14T15:04:52.624Z,5.20
2018-09-14T15:07:22.176Z,8.30
2018-09-14T15:09:51.771Z,6.47
2018-09-14T15:12:21.237Z,6.70
2018-09-14T15:14:50.621Z,6.47
2018-09-14T15:17:19.204Z,6.37
2018-09-14T15:19:47.657Z,6.43
2018-09-14T15:22:17.220Z,5.27
2018-09-14T15:24:48.752Z,7.00
2018-09-14T15:27:17.999Z,8.53
2018-09-14T15:29:46.850Z,7.47
2018-09-14T15:32:15.721Z,5.67
2018-09-14T15:34:44.209Z,10.43
2018-09-14T15:37:12.997Z,3.83
2018-09-14T15:39:41.692Z,4.43
2018-09-14T15:42:10.185Z,4.40
2018-09-14T15:44:38.748Z,4.30
2018-09-14T15:47:07.749Z,4.57
2018-09-14T15:49:36.378Z,6.27
2018-09-14T15:52:04.996Z,4.77
2018-09-14T15:54:33.479Z,5.47
2018-09-14T15:57:02.384Z,6.30
2018-09-14T15:59:31.074Z,5.67
2018-09-14T16:01:59.756Z,3.70
2018-09-14T16:04:28.451Z,4.63
2018-09-14T16:06:56.896Z,3.57
2018-09-14T16:09:26.531Z,9.23
2018-09-14T16:11:55.175Z,4.23
2018-09-14T16:14:23.697Z,7.63
2018-09-14T16:16:52.330Z,4.90
2018-09-14T16:19:20.890Z,6.90
2018-09-14T16:21:49.632Z,8.47
2018-09-14T16:24:18.372Z,5.10
2018-09-14T16:26:46.857Z,4.00
2018-09-14T16:29:15.308Z,4.37
2018-09-14T16:31:44.192Z,5.80
2018-09-14T16:34:12.709Z,4.73
2018-09-14T16:36:41.133Z,8.03
2018-09-14T16:39:11.168Z,4.70
2018-09-14T16:41:40.516Z,3.70
2018-09-14T16:44:10.298Z,8.20
2018-09-14T16:46:39.269Z,6.30
2018-09-14T16:49:08.568Z,4.03
2018-09-14T16:51:37.246Z,4.53
2018-09-14T16:54:05.757Z,4.77
2018-09-14T16:56:35.136Z,5.63
2018-09-14T16:59:03.697Z,10.47
2018-09-14T17:01:32.424Z,6.33
2018-09-14T17:04:00.885Z,5.17
2018-09-14T17:06:29.506Z,3.83
2018-09-14T17:08:58.073Z,8.17
2018-09-14T17:11:26.557Z,6.23
2018-09-14T17:13:55.134Z,4.37
2018-09-14T17:16:23.585Z,3.93
2018-09-14T17:18:52.127Z,4.00
2018-09-14T17:21:20.703Z,8.40
2018-09-14T17:23:49.164Z,3.67
2018-09-14T17:26:17.685Z,5.87
2018-09-14T17:28:46.512Z,3.60
2018-09-14T17:31:15.128Z,5.10
2018-09-14T17:33:43.579Z,4.73
2018-09-14T17:36:12.097Z,4.97
2018-09-14T17:38:40.585Z,4.00
2018-09-14T17:41:09.180Z,4.83
2018-09-14T17:50:41.888Z,3.07
2018-09-14T17:53:10.387Z,7.10
2018-09-14T17:55:38.820Z,6.80
2018-09-14T17:58:08.345Z,4.03
2018-09-14T18:00:36.812Z,3.67
2018-09-14T18:03:05.367Z,4.23
2018-09-14T18:05:33.885Z,3.20
2018-09-14T18:08:02.394Z,4.50
2018-09-14T18:10:30.879Z,3.50
2018-09-14T18:12:59.330Z,3.77
2018-09-14T18:15:27.808Z,5.80
2018-09-14T18:17:56.295Z,3.87
2018-09-14T18:20:24.775Z,53.27
2018-09-14T18:22:53.281Z,4.03
2018-09-14T18:25:21.773Z,5.70
2018-09-14T18:27:50.360Z,5.80
2018-09-14T18:30:18.732Z,3.33
2018-09-14T18:32:47.183Z,3.90
2018-09-14T18:35:15.697Z,3.57
2018-09-14T18:37:44.135Z,3.20
2018-09-14T18:40:12.666Z,2.90
2018-09-14T18:42:41.107Z,6.53
2018-09-14T18:45:09.714Z,3.00
2018-09-14T18:47:38.281Z,5.10
2018-09-14T18:50:07.174Z,5.63
2018-09-14T18:52:35.697Z,5.37
2018-09-14T18:55:04.165Z,3.40
2018-09-14T18:57:32.641Z,3.93
2018-09-14T19:00:01.374Z,4.17
2018-09-14T19:02:29.932Z,5.77
2018-09-14T19:04:58.583Z,3.90
2018-09-14T19:07:27.256Z,3.90
2018-09-14T19:09:55.745Z,4.40
2018-09-14T19:12:24.254Z,5.10
2018-09-14T19:14:52.709Z,4.40
2018-09-14T19:17:21.173Z,3.97
2018-09-14T19:19:49.690Z,7.63
2018-09-14T19:22:18.145Z,5.23
2018-09-14T19:24:46.737Z,8.90
2018-09-14T19:27:15.217Z,4.37
2018-09-14T19:29:43.708Z,5.00
2018-09-14T19:32:12.358Z,7.73
2018-09-14T19:34:40.885Z,6.50
2018-09-14T19:37:09.389Z,8.33
2018-09-14T19:39:37.901Z,5.73
2018-09-14T19:42:06.434Z,6.20
2018-09-14T19:44:34.971Z,5.90
2018-09-14T19:47:03.426Z,6.17
2018-09-14T19:49:31.869Z,7.80
2018-09-14T19:52:00.361Z,6.53
2018-09-14T19:54:28.837Z,7.63
2018-09-14T19:56:57.345Z,6.53
2018-09-14T19:59:25.801Z,11.53
2018-09-14T20:01:54.266Z,5.63
2018-09-14T20:04:22.879Z,5.87
2018-09-14T20:06:51.406Z,6.77
2018-09-14T20:09:19.928Z,6.47
2018-09-14T20:11:48.413Z,7.33
2018-09-14T20:14:16.886Z,9.73
2018-09-14T20:16:45.362Z,8.93
2018-09-14T20:19:13.861Z,6.60
2018-09-14T20:21:42.317Z,6.43
2018-09-14T20:24:10.776Z,6.60
2018-09-14T20:26:39.928Z,7.57
2018-09-14T20:29:08.392Z,5.63
2018-09-14T20:31:37.806Z,4.77
2018-09-14T20:34:06.345Z,6.73
2018-09-14T20:36:34.877Z,6.63
2018-09-14T20:39:03.468Z,6.03
2018-09-14T20:41:31.972Z,3.93
2018-09-14T20:44:00.481Z,4.07
2018-09-14T20:46:29.058Z,4.07
2018-09-14T20:48:57.560Z,4.30
2018-09-14T20:51:26.035Z,9.20
2018-09-14T20:53:54.528Z,6.30
2018-09-14T20:56:23.054Z,7.63
2018-09-14T20:58:51.486Z,4.73
2018-09-14T21:01:19.957Z,4.80
2018-09-14T21:03:48.489Z,6.23
2018-09-14T21:06:16.949Z,6.23
2018-09-14T21:08:45.432Z,4.97
2018-09-14T21:11:13.897Z,9.50
2018-09-14T21:13:42.391Z,7.20
2018-09-14T21:16:10.849Z,8.20
2018-09-14T21:18:39.392Z,6.83
2018-09-14T21:21:07.874Z,7.13
2018-09-14T21:23:36.359Z,11.03
2018-09-14T21:26:04.787Z,7.00
2018-09-14T21:28:34.289Z,7.30
2018-09-14T21:31:02.821Z,10.30
2018-09-14T21:33:31.241Z,8.10
2018-09-14T21:35:59.756Z,9.23
2018-09-14T21:38:28.258Z,17.80
2018-09-14T21:40:56.740Z,4.17
2018-09-14T21:43:25.252Z,5.60
2018-09-14T21:45:53.777Z,8.00
2018-09-14T21:48:22.373Z,4.77
2018-09-14T21:50:51.876Z,12.00
2018-09-14T21:53:20.320Z,7.63
2018-09-14T21:55:48.877Z,8.93
2018-09-14T21:58:17.313Z,4.83
2018-09-14T22:00:51.148Z,6.20
2018-09-14T22:03:19.705Z,5.70
2018-09-14T22:05:48.236Z,7.17
2018-09-14T22:08:16.665Z,5.00
2018-09-14T22:10:45.219Z,11.90
2018-09-14T22:13:13.812Z,12.20
2018-09-14T22:15:42.358Z,5.67
2018-09-14T22:18:10.805Z,6.03
2018-09-14T22:20:39.277Z,7.50
2018-09-14T22:23:07.839Z,10.00
2018-09-14T22:25:36.417Z,15.33
2018-09-14T22:28:05.020Z,5.40
2018-09-14T22:30:33.513Z,7.03
2018-09-14T22:33:02.025Z,4.30
2018-09-14T22:35:30.513Z,4.07
2018-09-14T22:37:59.036Z,4.33
2018-09-14T22:40:27.554Z,4.47
2018-09-14T22:42:56.034Z,8.13
2018-09-14T22:45:24.494Z,6.77
2018-09-14T22:47:52.997Z,6.83
2018-09-14T22:50:21.504Z,6.97
2018-09-14T22:52:49.980Z,4.23
2018-09-14T22:55:18.745Z,5.30
2018-09-14T22:57:47.325Z,4.67
2018-09-14T23:00:21.313Z,8.97
2018-09-14T23:02:49.795Z,6.17
2018-09-14T23:05:18.325Z,4.33
2018-09-14T23:07:46.783Z,5.27
2018-09-14T23:10:15.297Z,5.17
2018-09-14T23:12:43.749Z,8.55
2018-09-14T23:15:12.221Z,16.63
2018-09-14T23:17:40.706Z,3.93
2018-09-14T23:20:09.191Z,6.00
2018-09-14T23:22:38.398Z,7.10
2018-09-14T23:25:06.902Z,4.90
2018-09-14T23:27:35.480Z,3.97
2018-09-14T23:30:03.967Z,7.37
2018-09-14T23:32:32.436Z,6.77
2018-09-14T23:35:01.136Z,6.30
2018-09-14T23:37:29.612Z,3.67
2018-09-14T23:39:58.072Z,7.50
2018-09-14T23:42:26.535Z,4.70
2018-09-14T23:44:55.057Z,5.70
2018-09-14T23:47:23.501Z,5.47
2018-09-14T23:49:51.981Z,5.60
2018-09-14T23:52:20.476Z,8.47
2018-09-14T23:54:48.952Z,5.07
2018-09-14T23:57:17.578Z,9.77
2018-09-14T23:59:46.038Z,9.03
